TVF48XH LFRB-LFBO
Flight info
| Callsign | TVF48XH |
|---|---|
| Flight time | 1h 0m |
| Altitude | 35000 |
| Route | ROSPO DCT KORER UM616 TUPAR/N0451F330 DCT CNA DCT UVELI DCT SECHE |
| Aircraft | B738/M-SDE2E3FGHIRWXY/LB1 |
Departure
| Time | 2026-04-23 14:40 |
|---|---|
| Airport | Brest Bretagne airport (LFRB) |
Arrival
| Time | 2026-04-23 15:40 |
|---|---|
| Airport | Toulouse-Blagnac Airport (LFBO) |
| Time | Latitude | Longitude | Altitude | Speed | Heading |
|---|---|---|---|---|---|
| 2026-04-23 14:13 | 48.44425 | -4.42101 | 331 ft | 0 kts | 191° |
| 2026-04-23 14:32 | 48.44432 | -4.42099 | 326 ft | 4 kts | 192° |
| 2026-04-23 14:32 | 48.44458 | -4.42088 | 328 ft | 4 kts | 201° |
| 2026-04-23 14:33 | 48.44482 | -4.42070 | 326 ft | 4 kts | 213° |
| 2026-04-23 14:33 | 48.44503 | -4.42045 | 326 ft | 4 kts | 232° |
| 2026-04-23 14:33 | 48.44514 | -4.42017 | 327 ft | 1 kts | 251° |
| 2026-04-23 14:35 | 48.44513 | -4.42023 | 327 ft | 2 kts | 251° |
| 2026-04-23 14:36 | 48.44523 | -4.42074 | 329 ft | 7 kts | 323° |
| 2026-04-23 14:36 | 48.44565 | -4.42102 | 331 ft | 7 kts | 341° |
| 2026-04-23 14:36 | 48.44608 | -4.42123 | 331 ft | 6 kts | 341° |
| 2026-04-23 14:36 | 48.44651 | -4.42145 | 329 ft | 7 kts | 341° |
| 2026-04-23 14:37 | 48.44696 | -4.42227 | 325 ft | 15 kts | 270° |
| 2026-04-23 14:37 | 48.44656 | -4.42423 | 313 ft | 23 kts | 251° |
| 2026-04-23 14:37 | 48.44603 | -4.42656 | 306 ft | 25 kts | 251° |
| 2026-04-23 14:37 | 48.44543 | -4.42920 | 304 ft | 28 kts | 251° |
| 2026-04-23 14:38 | 48.44478 | -4.43212 | 299 ft | 29 kts | 251° |
| 2026-04-23 14:38 | 48.44414 | -4.43495 | 302 ft | 28 kts | 251° |
| 2026-04-23 14:38 | 48.44372 | -4.43677 | 298 ft | 10 kts | 251° |
| 2026-04-23 14:38 | 48.44377 | -4.43793 | 296 ft | 11 kts | 281° |
| 2026-04-23 14:39 | 48.44350 | -4.43795 | 297 ft | 7 kts | 94° |
| 2026-04-23 14:39 | 48.44358 | -4.43744 | 296 ft | 0 kts | 70° |
| 2026-04-23 14:39 | 48.44371 | -4.43687 | 298 ft | 27 kts | 71° |
| 2026-04-23 14:39 | 48.44513 | -4.43062 | 297 ft | 99 kts | 71° |
| 2026-04-23 14:40 | 48.44797 | -4.41801 | 365 ft | 151 kts | 72° |
| 2026-04-23 14:40 | 48.45170 | -4.40245 | 878 ft | 164 kts | 74° |
| 2026-04-23 14:40 | 48.45312 | -4.38583 | 1630 ft | 160 kts | 108° |
| 2026-04-23 14:40 | 48.44665 | -4.37288 | 2321 ft | 151 kts | 139° |
| 2026-04-23 14:41 | 48.43838 | -4.36116 | 2520 ft | 180 kts | 133° |
| 2026-04-23 14:41 | 48.42919 | -4.34717 | 2972 ft | 196 kts | 133° |
| 2026-04-23 14:41 | 48.41934 | -4.33156 | 3344 ft | 214 kts | 131° |
| 2026-04-23 14:41 | 48.40870 | -4.31486 | 3781 ft | 231 kts | 133° |
| 2026-04-23 14:42 | 48.39687 | -4.29684 | 4225 ft | 247 kts | 134° |
| 2026-04-23 14:42 | 48.38483 | -4.27864 | 5220 ft | 243 kts | 134° |
| 2026-04-23 14:42 | 48.37289 | -4.26059 | 6087 ft | 245 kts | 135° |
| 2026-04-23 14:42 | 48.36076 | -4.24223 | 6887 ft | 248 kts | 135° |
| 2026-04-23 14:43 | 48.34845 | -4.22360 | 7587 ft | 254 kts | 134° |
| 2026-04-23 14:43 | 48.33592 | -4.20461 | 8342 ft | 257 kts | 134° |
| 2026-04-23 14:43 | 48.32326 | -4.18544 | 9132 ft | 259 kts | 134° |
| 2026-04-23 14:43 | 48.31047 | -4.16607 | 9904 ft | 263 kts | 133° |
| 2026-04-23 14:44 | 48.29746 | -4.14641 | 10503 ft | 272 kts | 133° |
| 2026-04-23 14:44 | 48.28352 | -4.12534 | 10661 ft | 296 kts | 133° |
| 2026-04-23 14:44 | 48.26824 | -4.10302 | 10841 ft | 318 kts | 137° |
| 2026-04-23 14:44 | 48.25063 | -4.08162 | 11225 ft | 331 kts | 141° |
| 2026-04-23 14:45 | 48.23212 | -4.06064 | 11826 ft | 337 kts | 141° |
| 2026-04-23 14:45 | 48.21348 | -4.03972 | 12505 ft | 341 kts | 141° |
| 2026-04-23 14:45 | 48.19442 | -4.01819 | 13152 ft | 346 kts | 141° |
| 2026-04-23 14:45 | 48.17510 | -3.99620 | 13823 ft | 351 kts | 141° |
| 2026-04-23 14:46 | 48.15561 | -3.97387 | 14462 ft | 355 kts | 141° |
| 2026-04-23 14:46 | 48.13588 | -3.95118 | 15058 ft | 361 kts | 141° |
| 2026-04-23 14:46 | 48.11590 | -3.92816 | 15729 ft | 364 kts | 141° |
| 2026-04-23 14:46 | 48.09576 | -3.90498 | 16442 ft | 366 kts | 141° |
| 2026-04-23 14:47 | 48.07561 | -3.88179 | 17233 ft | 366 kts | 141° |
| 2026-04-23 14:47 | 48.05515 | -3.85823 | 17635 ft | 378 kts | 142° |
| 2026-04-23 14:47 | 48.03411 | -3.83404 | 18131 ft | 385 kts | 142° |
| 2026-04-23 14:47 | 48.01277 | -3.80954 | 18731 ft | 388 kts | 142° |
| 2026-04-23 14:48 | 47.99133 | -3.78496 | 19348 ft | 389 kts | 142° |
| 2026-04-23 14:48 | 47.97058 | -3.75902 | 19978 ft | 391 kts | 132° |
| 2026-04-23 14:48 | 47.95554 | -3.72507 | 20392 ft | 398 kts | 114° |
| 2026-04-23 14:48 | 47.94629 | -3.68583 | 20822 ft | 405 kts | 108° |
| 2026-04-23 14:49 | 47.93770 | -3.64527 | 21194 ft | 413 kts | 108° |
| 2026-04-23 14:49 | 47.92916 | -3.60421 | 21702 ft | 416 kts | 107° |
| 2026-04-23 14:49 | 47.92051 | -3.56283 | 22196 ft | 420 kts | 108° |
| 2026-04-23 14:49 | 47.91166 | -3.52103 | 22633 ft | 425 kts | 108° |
| 2026-04-23 14:50 | 47.90264 | -3.47887 | 23095 ft | 429 kts | 108° |
| 2026-04-23 14:50 | 47.89346 | -3.43643 | 23589 ft | 433 kts | 108° |
| 2026-04-23 14:50 | 47.88413 | -3.39356 | 23959 ft | 437 kts | 108° |
| 2026-04-23 14:50 | 47.87468 | -3.35035 | 24379 ft | 439 kts | 108° |
| 2026-04-23 14:51 | 47.86519 | -3.30701 | 24847 ft | 440 kts | 108° |
| 2026-04-23 14:51 | 47.85579 | -3.26420 | 25225 ft | 443 kts | 108° |
| 2026-04-23 14:51 | 47.84614 | -3.22035 | 25485 ft | 449 kts | 108° |
| 2026-04-23 14:51 | 47.83637 | -3.17604 | 25913 ft | 450 kts | 108° |
| 2026-04-23 14:52 | 47.82669 | -3.13223 | 26588 ft | 445 kts | 108° |
| 2026-04-23 14:52 | 47.81697 | -3.08833 | 26949 ft | 448 kts | 108° |
| 2026-04-23 14:52 | 47.80711 | -3.04388 | 27165 ft | 455 kts | 108° |
| 2026-04-23 14:52 | 47.79717 | -2.99915 | 27564 ft | 456 kts | 108° |
| 2026-04-23 14:53 | 47.78716 | -2.95422 | 27860 ft | 460 kts | 108° |
| 2026-04-23 14:53 | 47.77704 | -2.90885 | 28088 ft | 466 kts | 108° |
| 2026-04-23 14:53 | 47.76677 | -2.86293 | 28385 ft | 469 kts | 108° |
| 2026-04-23 14:53 | 47.75646 | -2.81696 | 28853 ft | 469 kts | 108° |
| 2026-04-23 14:54 | 47.74610 | -2.77083 | 29172 ft | 471 kts | 108° |
| 2026-04-23 14:54 | 47.73563 | -2.72434 | 29335 ft | 477 kts | 108° |
| 2026-04-23 14:54 | 47.72865 | -2.69338 | 29527 ft | 479 kts | 108° |
| 2026-04-23 14:54 | 47.71803 | -2.64638 | 29848 ft | 481 kts | 108° |
| 2026-04-23 14:55 | 47.70737 | -2.59927 | 30163 ft | 482 kts | 108° |
| 2026-04-23 14:55 | 47.69280 | -2.53713 | 30732 ft | 478 kts | 113° |
| 2026-04-23 14:55 | 47.68325 | -2.50707 | 31025 ft | 476 kts | 118° |
| 2026-04-23 14:55 | 47.66561 | -2.46532 | 31206 ft | 480 kts | 128° |
| 2026-04-23 14:56 | 47.64405 | -2.42737 | 31432 ft | 481 kts | 132° |
| 2026-04-23 14:56 | 47.62182 | -2.39027 | 31757 ft | 481 kts | 132° |
| 2026-04-23 14:56 | 47.59955 | -2.35326 | 32103 ft | 480 kts | 132° |
| 2026-04-23 14:56 | 47.57752 | -2.31640 | 32572 ft | 476 kts | 132° |
| 2026-04-23 14:57 | 47.55574 | -2.27962 | 32966 ft | 474 kts | 132° |
| 2026-04-23 14:57 | 47.53433 | -2.24328 | 33264 ft | 474 kts | 131° |
| 2026-04-23 14:57 | 47.51269 | -2.20644 | 33563 ft | 474 kts | 131° |
| 2026-04-23 14:57 | 47.49107 | -2.16962 | 33898 ft | 474 kts | 131° |
| 2026-04-23 14:58 | 47.46947 | -2.13288 | 34223 ft | 473 kts | 132° |
| 2026-04-23 14:58 | 47.44791 | -2.09627 | 34516 ft | 472 kts | 132° |
| 2026-04-23 14:58 | 47.42636 | -2.05976 | 34763 ft | 472 kts | 131° |
| 2026-04-23 14:58 | 47.40473 | -2.02316 | 34900 ft | 475 kts | 131° |
| 2026-04-23 14:59 | 47.38300 | -1.98644 | 35132 ft | 475 kts | 131° |
| 2026-04-23 14:59 | 47.36120 | -1.94965 | 35134 ft | 477 kts | 131° |
| 2026-04-23 14:59 | 47.31756 | -1.87612 | 35147 ft | 475 kts | 131° |
| 2026-04-23 15:00 | 47.27438 | -1.80337 | 35150 ft | 470 kts | 131° |
| 2026-04-23 15:00 | 47.23132 | -1.73100 | 35158 ft | 470 kts | 132° |
| 2026-04-23 15:01 | 47.18829 | -1.65885 | 35161 ft | 469 kts | 132° |
| 2026-04-23 15:01 | 47.14398 | -1.58828 | 35155 ft | 469 kts | 138° |
| 2026-04-23 15:02 | 47.09505 | -1.52472 | 35141 ft | 471 kts | 140° |
| 2026-04-23 15:02 | 47.04562 | -1.46143 | 35141 ft | 472 kts | 139° |
| 2026-04-23 15:03 | 46.99651 | -1.39722 | 35138 ft | 474 kts | 139° |
| 2026-04-23 15:03 | 46.94730 | -1.33282 | 35131 ft | 475 kts | 139° |
| 2026-04-23 15:04 | 46.89830 | -1.26884 | 35139 ft | 475 kts | 139° |
| 2026-04-23 15:04 | 46.84892 | -1.20450 | 35140 ft | 476 kts | 139° |
| 2026-04-23 15:05 | 46.79941 | -1.14014 | 35137 ft | 477 kts | 139° |
| 2026-04-23 15:05 | 46.74984 | -1.07586 | 35141 ft | 477 kts | 139° |
| 2026-04-23 15:06 | 46.70014 | -1.01158 | 35138 ft | 478 kts | 139° |
| 2026-04-23 15:06 | 46.65038 | -0.94739 | 35138 ft | 478 kts | 139° |
| 2026-04-23 15:07 | 46.60058 | -0.88329 | 35141 ft | 478 kts | 139° |
| 2026-04-23 15:07 | 46.55084 | -0.81931 | 35133 ft | 477 kts | 139° |
| 2026-04-23 15:08 | 46.50118 | -0.75528 | 35141 ft | 477 kts | 139° |
| 2026-04-23 15:09 | 46.42398 | -0.66547 | 35137 ft | 476 kts | 153° |
| 2026-04-23 15:09 | 46.36292 | -0.63026 | 35139 ft | 472 kts | 165° |
| 2026-04-23 15:10 | 46.31024 | -0.60692 | 35126 ft | 473 kts | 165° |
| 2026-04-23 15:10 | 46.23716 | -0.57423 | 35130 ft | 473 kts | 165° |
| 2026-04-23 15:11 | 46.17433 | -0.54555 | 35132 ft | 474 kts | 164° |
| 2026-04-23 15:11 | 46.11148 | -0.51672 | 35123 ft | 474 kts | 164° |
| 2026-04-23 15:12 | 46.04862 | -0.48796 | 35123 ft | 474 kts | 164° |
| 2026-04-23 15:12 | 45.98576 | -0.45929 | 35120 ft | 474 kts | 165° |
| 2026-04-23 15:13 | 45.92289 | -0.43070 | 35112 ft | 473 kts | 164° |
| 2026-04-23 15:13 | 45.86008 | -0.40220 | 35114 ft | 473 kts | 165° |
| 2026-04-23 15:14 | 45.79730 | -0.37378 | 35115 ft | 473 kts | 165° |
| 2026-04-23 15:14 | 45.73461 | -0.34546 | 35105 ft | 472 kts | 165° |
| 2026-04-23 15:15 | 45.67197 | -0.31724 | 35112 ft | 472 kts | 164° |
| 2026-04-23 15:15 | 45.61127 | -0.28060 | 35110 ft | 475 kts | 155° |
| 2026-04-23 15:16 | 45.55219 | -0.23848 | 35095 ft | 474 kts | 155° |
| 2026-04-23 15:16 | 45.49313 | -0.19677 | 35102 ft | 474 kts | 155° |
| 2026-04-23 15:17 | 45.43388 | -0.15577 | 35100 ft | 473 kts | 156° |
| 2026-04-23 15:17 | 45.37458 | -0.11511 | 35091 ft | 473 kts | 156° |
| 2026-04-23 15:18 | 45.31573 | -0.07482 | 35094 ft | 473 kts | 156° |
| 2026-04-23 15:18 | 45.25626 | -0.03421 | 34637 ft | 479 kts | 156° |
| 2026-04-23 15:18 | 45.22619 | -0.01370 | 34057 ft | 478 kts | 156° |
| 2026-04-23 15:19 | 45.19615 | 0.00678 | 33320 ft | 479 kts | 156° |
| 2026-04-23 15:19 | 45.16613 | 0.02724 | 32607 ft | 479 kts | 156° |
| 2026-04-23 15:19 | 45.13606 | 0.04770 | 31888 ft | 480 kts | 156° |
| 2026-04-23 15:19 | 45.10602 | 0.06812 | 31307 ft | 477 kts | 156° |
| 2026-04-23 15:20 | 45.07623 | 0.08834 | 30813 ft | 473 kts | 156° |
| 2026-04-23 15:20 | 45.04662 | 0.10841 | 30315 ft | 470 kts | 156° |
| 2026-04-23 15:20 | 45.01721 | 0.12831 | 29710 ft | 467 kts | 156° |
| 2026-04-23 15:20 | 44.98802 | 0.14803 | 29136 ft | 463 kts | 156° |
| 2026-04-23 15:21 | 44.95913 | 0.16753 | 28631 ft | 458 kts | 156° |
| 2026-04-23 15:21 | 44.93056 | 0.18679 | 28110 ft | 453 kts | 156° |
| 2026-04-23 15:21 | 44.90259 | 0.20564 | 27616 ft | 449 kts | 156° |
| 2026-04-23 15:21 | 44.87413 | 0.22478 | 27107 ft | 445 kts | 156° |
| 2026-04-23 15:22 | 44.84663 | 0.24326 | 26616 ft | 442 kts | 156° |
| 2026-04-23 15:22 | 44.81898 | 0.26182 | 26128 ft | 438 kts | 156° |
| 2026-04-23 15:22 | 44.79154 | 0.28022 | 25658 ft | 435 kts | 156° |
| 2026-04-23 15:22 | 44.76428 | 0.29849 | 25160 ft | 433 kts | 156° |
| 2026-04-23 15:23 | 44.73718 | 0.31663 | 24681 ft | 430 kts | 156° |
| 2026-04-23 15:23 | 44.71025 | 0.33463 | 24174 ft | 428 kts | 156° |
| 2026-04-23 15:23 | 44.68337 | 0.35259 | 23687 ft | 426 kts | 156° |
| 2026-04-23 15:23 | 44.65664 | 0.37043 | 23121 ft | 424 kts | 156° |
| 2026-04-23 15:24 | 44.63009 | 0.38812 | 22615 ft | 421 kts | 156° |
| 2026-04-23 15:24 | 44.60377 | 0.40565 | 22109 ft | 417 kts | 156° |
| 2026-04-23 15:24 | 44.57766 | 0.42302 | 21623 ft | 413 kts | 156° |
| 2026-04-23 15:24 | 44.55178 | 0.44023 | 21149 ft | 410 kts | 156° |
| 2026-04-23 15:25 | 44.52612 | 0.45727 | 20685 ft | 406 kts | 156° |
| 2026-04-23 15:25 | 44.50067 | 0.47416 | 20217 ft | 403 kts | 156° |
| 2026-04-23 15:25 | 44.47544 | 0.49088 | 19764 ft | 400 kts | 156° |
| 2026-04-23 15:25 | 44.45036 | 0.50748 | 19308 ft | 397 kts | 156° |
| 2026-04-23 15:26 | 44.42549 | 0.52390 | 18900 ft | 394 kts | 156° |
| 2026-04-23 15:26 | 44.40076 | 0.54012 | 18531 ft | 391 kts | 156° |
| 2026-04-23 15:26 | 44.37618 | 0.55619 | 18148 ft | 388 kts | 156° |
| 2026-04-23 15:26 | 44.35181 | 0.57211 | 17745 ft | 385 kts | 156° |
| 2026-04-23 15:27 | 44.32758 | 0.58794 | 17362 ft | 384 kts | 156° |
| 2026-04-23 15:27 | 44.30348 | 0.60365 | 16994 ft | 382 kts | 156° |
| 2026-04-23 15:27 | 44.27948 | 0.61927 | 16659 ft | 379 kts | 156° |
| 2026-04-23 15:27 | 44.25567 | 0.63479 | 16302 ft | 377 kts | 156° |
| 2026-04-23 15:28 | 44.23230 | 0.65001 | 15950 ft | 375 kts | 156° |
| 2026-04-23 15:28 | 44.20869 | 0.66538 | 15605 ft | 374 kts | 156° |
| 2026-04-23 15:28 | 44.18511 | 0.68071 | 15254 ft | 373 kts | 156° |
| 2026-04-23 15:28 | 44.16165 | 0.69597 | 14914 ft | 371 kts | 156° |
| 2026-04-23 15:29 | 44.13833 | 0.71112 | 14569 ft | 369 kts | 156° |
| 2026-04-23 15:29 | 44.11509 | 0.72620 | 14219 ft | 368 kts | 156° |
| 2026-04-23 15:29 | 44.09194 | 0.74120 | 13879 ft | 365 kts | 156° |
| 2026-04-23 15:29 | 44.06897 | 0.75608 | 13496 ft | 362 kts | 156° |
| 2026-04-23 15:30 | 44.04623 | 0.77082 | 13139 ft | 359 kts | 156° |
| 2026-04-23 15:30 | 44.02371 | 0.78539 | 12787 ft | 356 kts | 157° |
| 2026-04-23 15:30 | 44.00134 | 0.79984 | 12453 ft | 353 kts | 157° |
| 2026-04-23 15:30 | 43.97907 | 0.81421 | 12120 ft | 351 kts | 157° |
| 2026-04-23 15:31 | 43.95699 | 0.82845 | 11808 ft | 349 kts | 156° |
| 2026-04-23 15:31 | 43.93510 | 0.84256 | 11476 ft | 345 kts | 158° |
| 2026-04-23 15:31 | 43.91373 | 0.85632 | 11152 ft | 340 kts | 156° |
| 2026-04-23 15:31 | 43.89238 | 0.87004 | 10834 ft | 336 kts | 156° |
| 2026-04-23 15:32 | 43.87155 | 0.88469 | 10293 ft | 340 kts | 153° |
| 2026-04-23 15:32 | 43.85104 | 0.90088 | 9997 ft | 335 kts | 153° |
| 2026-04-23 15:32 | 43.83158 | 0.91633 | 9987 ft | 311 kts | 153° |
| 2026-04-23 15:32 | 43.81337 | 0.93067 | 9953 ft | 291 kts | 154° |
| 2026-04-23 15:33 | 43.79565 | 0.94449 | 9379 ft | 291 kts | 152° |
| 2026-04-23 15:33 | 43.77821 | 0.95800 | 9032 ft | 283 kts | 152° |
| 2026-04-23 15:33 | 43.76110 | 0.97121 | 8800 ft | 280 kts | 152° |
| 2026-04-23 15:33 | 43.74588 | 0.98750 | 8533 ft | 279 kts | 128° |
| 2026-04-23 15:34 | 43.73798 | 1.01160 | 8313 ft | 277 kts | 99° |
| 2026-04-23 15:34 | 43.73876 | 1.03789 | 8016 ft | 276 kts | 73° |
| 2026-04-23 15:34 | 43.74797 | 1.06113 | 7575 ft | 279 kts | 46° |
| 2026-04-23 15:34 | 43.76393 | 1.07623 | 7146 ft | 281 kts | 21° |
| 2026-04-23 15:35 | 43.78300 | 1.08332 | 6513 ft | 291 kts | 20° |
| 2026-04-23 15:35 | 43.79945 | 1.09965 | 5811 ft | 295 kts | 57° |
| 2026-04-23 15:35 | 43.80596 | 1.12542 | 5488 ft | 280 kts | 83° |
| 2026-04-23 15:35 | 43.80737 | 1.15212 | 4981 ft | 274 kts | 91° |
| 2026-04-23 15:36 | 43.80239 | 1.17702 | 4446 ft | 272 kts | 122° |
| 2026-04-23 15:36 | 43.78926 | 1.19545 | 4061 ft | 266 kts | 139° |
| 2026-04-23 15:36 | 43.77460 | 1.21046 | 3692 ft | 258 kts | 141° |
| 2026-04-23 15:36 | 43.76057 | 1.22479 | 3361 ft | 249 kts | 141° |
| 2026-04-23 15:37 | 43.74707 | 1.23878 | 3028 ft | 233 kts | 140° |
| 2026-04-23 15:37 | 43.73462 | 1.25175 | 2725 ft | 216 kts | 140° |
| 2026-04-23 15:37 | 43.72666 | 1.26009 | 2414 ft | 211 kts | 141° |
| 2026-04-23 15:37 | 43.71221 | 1.27506 | 2138 ft | 184 kts | 140° |
| 2026-04-23 15:38 | 43.70247 | 1.28531 | 1989 ft | 167 kts | 139° |
| 2026-04-23 15:38 | 43.69345 | 1.29477 | 1713 ft | 159 kts | 141° |
| 2026-04-23 15:38 | 43.68493 | 1.30338 | 1570 ft | 143 kts | 141° |
| 2026-04-23 15:38 | 43.67743 | 1.31122 | 1299 ft | 134 kts | 138° |
| 2026-04-23 15:39 | 43.66992 | 1.31898 | 1170 ft | 135 kts | 140° |
| 2026-04-23 15:39 | 43.66264 | 1.32666 | 980 ft | 129 kts | 140° |
| 2026-04-23 15:39 | 43.65550 | 1.33410 | 797 ft | 128 kts | 141° |
| 2026-04-23 15:39 | 43.64827 | 1.34160 | 610 ft | 130 kts | 140° |
| 2026-04-23 15:40 | 43.64125 | 1.34887 | 501 ft | 119 kts | 140° |
| 2026-04-23 15:40 | 43.63551 | 1.35492 | 493 ft | 84 kts | 143° |
| 2026-04-23 15:40 | 43.63203 | 1.35852 | 489 ft | 41 kts | 143° |
| 2026-04-23 15:40 | 43.63037 | 1.36025 | 493 ft | 27 kts | 142° |
| 2026-04-23 15:41 | 43.62881 | 1.36188 | 490 ft | 28 kts | 142° |
| 2026-04-23 15:41 | 43.62729 | 1.36347 | 493 ft | 26 kts | 142° |
| 2026-04-23 15:41 | 43.62587 | 1.36494 | 485 ft | 25 kts | 143° |
| 2026-04-23 15:41 | 43.62459 | 1.36639 | 488 ft | 23 kts | 126° |
| 2026-04-23 15:42 | 43.62458 | 1.36853 | 484 ft | 22 kts | 83° |
| 2026-04-23 15:42 | 43.62477 | 1.37062 | 493 ft | 22 kts | 83° |
| 2026-04-23 15:42 | 43.62496 | 1.37214 | 493 ft | 13 kts | 66° |
| 2026-04-23 15:42 | 43.62504 | 1.37233 | 486 ft | 0 kts | 57° |
| 2026-04-23 15:43 | 43.62511 | 1.37245 | 491 ft | 7 kts | 54° |
| 2026-04-23 15:43 | 43.62569 | 1.37356 | 484 ft | 17 kts | 54° |
| 2026-04-23 15:44 | 43.62640 | 1.37487 | 493 ft | 17 kts | 57° |
| 2026-04-23 15:44 | 43.62699 | 1.37604 | 487 ft | 12 kts | 52° |
| 2026-04-23 15:44 | 43.62711 | 1.37681 | 493 ft | 7 kts | 96° |
| 2026-04-23 15:44 | 43.62725 | 1.37723 | 490 ft | 1 kts | 52° |
| 2026-04-23 15:45 | 43.62730 | 1.37733 | 492 ft | 1 kts | 53° |
| 2026-04-23 15:45 | 43.62731 | 1.37735 | 491 ft | 0 kts | 53° |